createdAt,value
2023-05-18T00:03:32.659Z,22
2023-05-18T00:32:32.778Z,21
2023-05-18T01:01:43.839Z,22
2023-05-18T01:30:41.603Z,24
2023-05-18T01:59:44.653Z,22
2023-05-18T02:28:55.733Z,20
2023-05-18T02:58:11.426Z,22
2023-05-18T03:27:13.472Z,21
2023-05-18T03:56:21.728Z,20
2023-05-18T04:25:29.137Z,20
2023-05-18T04:54:21.170Z,22
2023-05-18T05:23:29.240Z,25
2023-05-18T05:52:37.360Z,26
2023-05-18T06:21:44.076Z,26
2023-05-18T06:50:57.112Z,26
2023-05-18T07:20:12.017Z,24
2023-05-18T07:49:32.986Z,22
2023-05-18T08:18:53.016Z,21
2023-05-18T08:48:03.931Z,14
2023-05-18T09:17:13.721Z,15
2023-05-18T09:46:33.783Z,20
2023-05-18T10:15:54.009Z,14
2023-05-18T10:45:13.844Z,21
2023-05-18T11:14:34.339Z,21
2023-05-18T11:43:56.783Z,14
2023-05-18T12:13:20.646Z,14
2023-05-18T12:42:42.500Z,14
2023-05-18T13:12:03.875Z,14
2023-05-18T13:40:40.059Z,11
2023-05-18T14:09:58.815Z,13
2023-05-18T14:39:31.327Z,12
2023-05-18T15:08:49.464Z,10
2023-05-18T15:38:03.416Z,11
2023-05-18T16:07:16.647Z,15
2023-05-18T16:36:35.480Z,14
2023-05-18T17:05:58.966Z,14
2023-05-18T17:35:08.543Z,11
2023-05-18T18:03:59.378Z,11
2023-05-18T18:33:09.771Z,12
2023-05-18T19:02:22.695Z,14
2023-05-18T19:31:35.729Z,21
2023-05-18T20:00:48.603Z,15
2023-05-18T20:29:49.431Z,13
2023-05-18T20:58:51.725Z,14
2023-05-18T21:28:01.374Z,14
2023-05-18T21:57:07.783Z,14
2023-05-18T22:26:19.148Z,12
2023-05-18T22:55:30.875Z,10
2023-05-18T23:24:38.940Z,12
2023-05-18T23:53:47.265Z,13
